logo
Search for airport 
image banner adimage banner adimage banner ad
image banner ad

OPSK - Sukkur/Begum Nusrat Bhutto Airport

Located in Sukkur, Pakistan

ICAO - OPSK, IATA - SKZ

Data provided by Airmate  

General information

Coordinates: N27°43'19" E68°47'31"
Elevation is 196 feet MSL.
 
View others Airports in Sindh

Operational data

Special qualification required
Current time UTC:
Current local time:
Weather
METAR: OPSK 191500Z 00000KT 4000 HZ NSC 31/18 Q1002 NOSIG
TAF: TAF OPSK 191100Z 1912/2012 18007G17KT 4000 HZ FEW035 SCT100 PROB30 TEMPO 1917/1920 02018G28KT 1500 -TSRA FEW025CB BKN030 OVC090 FM192000 04005KT 2500 HZ FEW035 SCT100 FM200400 16010KT 4000 HZ NSC
View NOTAMs / SUP AIP / TFR affecting this airport [VIEW]
Communications frequencies: [VIEW]

Runways:

RWY identifierQFULength (ft)Width (ft)SurfaceLDA (ft)
14141°899998ASP
32321°899998ASP

Airport contact information

Address: Sukkur Pakistan

Satellite view of OPSK